Happy Valentine's Day! 

Flight Track Log - Related Links

Times and Time Zones

All times are in EDT time to prevent confusion due to time zone crossing. See the CTL62 flight status page for this flight to view local times or setup timezone preferences in your user account.


Time Position Orientation Groundspeed Altitude Reporting Facility
EDT Latitude Longitude Course Direction KTS MPH feet Rate Location/Type
Thu 09:52:19 PM 40.0764 -83.0875 265° West 126 145 1,000  Level Indianapolis Center
Thu 09:52:44 PM 40.0750 -83.1064 265° West 127 146 1,600 1,271 Climbing Indianapolis Center
Thu 09:53:44 PM 40.0867 -83.1486 290° West 117 135 2,800 1,116 Climbing Indianapolis Center
Thu 09:54:10 PM 40.0922 -83.1583 307° West 115 132 3,200 896 Climbing Indianapolis Center
Thu 09:54:51 PM 40.1047 -83.1889 298° West 125 144 3,800 984 Climbing Indianapolis Center
Thu 09:55:11 PM 40.1106 -83.1981 310° West 121 139 4,200 889 Climbing Indianapolis Center
Thu 09:55:45 PM 40.1253 -83.2269 304° West 132 152 4,600 787 Climbing Indianapolis Center
Thu 09:56:12 PM 40.1328 -83.2369 314° West 127 146 5,000 590 Climbing Indianapolis Center
Thu 09:56:46 PM 40.1478 -83.2650 305° West 138 159 5,200 393 Climbing Indianapolis Center
Thu 09:57:13 PM 40.1550 -83.2794 303° West 134 154 5,400 537 Climbing Indianapolis Center
Thu 09:57:53 PM 40.1711 -83.3169 299° West 144 166 5,800 581 Climbing Indianapolis Center
Thu 09:58:15 PM 40.1764 -83.3250 311° West 141 162 6,000 222 Climbing Indianapolis Center
Thu 09:58:47 PM 40.1933 -83.3578 304° West 154 177 6,000  Level Indianapolis Center
Thu 09:59:16 PM 40.2011 -83.3722 305° West 148 170 6,000 -98 Level Indianapolis Center
Thu 09:59:48 PM 40.2192 -83.4075 304° West 168 193 5,900  Descending Indianapolis Center
Thu 10:00:17 PM 40.2314 -83.4311 304° West 160 184 6,000  Climbing Indianapolis Center
Thu 10:00:49 PM 40.2425 -83.4622 295° West 164 189 5,900  Descending Indianapolis Center
Thu 10:01:18 PM 40.2550 -83.4828 309° West 164 189 6,000  Climbing Indianapolis Center
Thu 10:01:43 PM 40.2644 -83.5058 298° West 164 189 5,900  Descending Indianapolis Center
Thu 10:02:19 PM 40.2781 -83.5350 301° West 164 189 6,000 61 Climbing Indianapolis Center
Thu 10:03:21 PM 40.3017 -83.5858 301° West 164 189 6,000  Level Indianapolis Center
Thu 10:04:22 PM 40.3244 -83.6364 301° West 162 186 6,000  Level Indianapolis Center
Thu 10:05:23 PM 40.3472 -83.6856 301° West 159 183 6,000  Level Indianapolis Center
Thu 10:06:24 PM 40.3708 -83.7350 302° West 158 182 6,000  Level Indianapolis Center
Thu 10:07:26 PM 40.3922 -83.7858 299° West 158 182 6,000  Level Indianapolis Center
Thu 10:08:27 PM 40.4147 -83.8369 300° West 159 183 6,000  Level Indianapolis Center
Thu 10:09:28 PM 40.4394 -83.8875 303° West 161 185 6,000  Level Indianapolis Center
Thu 10:10:29 PM 40.4617 -83.9392 299° West 162 186 6,000  Level Indianapolis Center
Thu 10:11:30 PM 40.4844 -83.9903 300° West 161 185 6,000  Level Indianapolis Center
Thu 10:12:32 PM 40.5083 -84.0417 301° West 162 186 6,000 49 Level Indianapolis Center
Thu 10:13:33 PM 40.5297 -84.0933 299° West 162 186 6,100  Climbing Indianapolis Center
Thu 10:14:34 PM 40.5525 -84.1450 300° West 161 185 6,000 -49 Descending Indianapolis Center
Thu 10:15:35 PM 40.5794 -84.2047 301° West 162 186 6,000  Level Indianapolis Center
Thu 10:16:36 PM 40.6031 -84.2556 301° West 162 186 6,000  Level Indianapolis Center
Thu 10:17:37 PM 40.6261 -84.3069 301° West 162 186 6,000  Level Indianapolis Center
Thu 10:18:38 PM 40.6539 -84.3547 307° West 163 188 6,000  Level Indianapolis Center
Thu 10:19:17 PM 40.6672 -84.3794 305° West 164 189 6,000  Level Chicago Center
Thu 10:20:19 PM 40.6894 -84.4300 300° West 163 188 6,000  Level Chicago Center
Thu 10:21:20 PM 40.7175 -84.4928 301° West 163 188 6,000  Level Chicago Center
Thu 10:22:22 PM 40.7406 -84.5458 300° West 166 191 6,000  Level Chicago Center
Thu 10:23:23 PM 40.7633 -84.5978 300° West 165 190 6,000  Level Chicago Center
Thu 10:24:25 PM 40.7867 -84.6492 301° West 164 189 6,000  Level Chicago Center
Thu 10:25:26 PM 40.8100 -84.7025 300° West 165 190 6,000  Level Chicago Center
Thu 10:26:28 PM 40.8325 -84.7561 299° West 167 192 6,000  Level Chicago Center
Thu 10:27:29 PM 40.8558 -84.8072 301° West 165 190 6,000 49 Level Chicago Center
Thu 10:28:31 PM 40.8792 -84.8589 301° West 164 189 6,100  Climbing Chicago Center
Thu 10:29:32 PM 40.9019 -84.9128 299° West 166 191 6,000 -49 Descending Chicago Center
Thu 10:30:33 PM 40.9303 -84.9742 301° West 165 190 6,000  Level Chicago Center
Thu 10:31:35 PM 40.9514 -85.0292 297° West 165 190 6,000  Level Chicago Center
Thu 10:32:36 PM 40.9750 -85.0803 301° West 165 190 6,000 49 Level Chicago Center
Thu 10:33:38 PM 40.9989 -85.1322 301° West 165 190 6,100  Climbing Chicago Center
Thu 10:34:39 PM 41.0219 -85.1836 301° West 164 189 6,000 -49 Descending Chicago Center
Thu 10:35:41 PM 41.0422 -85.2364 297° West 162 186 6,000 49 Level Chicago Center
Thu 10:36:42 PM 41.0653 -85.2906 299° West 164 189 6,100  Climbing Chicago Center
Thu 10:37:44 PM 41.0883 -85.3447 299° West 167 192 6,000  Descending Chicago Center
Thu 10:38:45 PM 41.1108 -85.3986 299° West 167 192 6,100  Climbing Chicago Center
Thu 10:39:46 PM 41.1375 -85.4636 299° West 167 192 6,000  Descending Chicago Center
Thu 10:40:47 PM 41.1600 -85.5167 299° West 166 191 6,100 49 Climbing Chicago Center
Thu 10:41:49 PM 41.1819 -85.5711 298° West 167 192 6,100 -49 Level Chicago Center
Thu 10:42:50 PM 41.2047 -85.6253 299° West 167 192 6,000 -49 Descending Chicago Center
Thu 10:43:51 PM 41.2272 -85.6800 299° West 168 193 6,000  Level Chicago Center
Thu 10:44:53 PM 41.2503 -85.7344 299° West 168 193 6,000 98 Level Chicago Center
Thu 10:45:54 PM 41.2733 -85.7883 300° West 168 193 6,200  Climbing Chicago Center
Thu 10:46:55 PM 41.2964 -85.8431 299° West 168 193 6,000 -98 Descending Chicago Center
Thu 10:47:56 PM 41.3197 -85.8981 299° West 170 196 6,000  Level Chicago Center
Thu 10:48:57 PM 41.3428 -85.9542 299° West 172 198 6,000  Level Chicago Center
Thu 10:49:59 PM 41.3661 -86.0092 299° West 171 197 6,000  Level Chicago Center
Thu 10:51:00 PM 41.3961 -86.0736 302° West 171 197 6,000  Level Chicago Center
Thu 10:52:01 PM 41.4214 -86.1261 303° West 170 196 6,000  Level Chicago Center
Thu 10:53:02 PM 41.4444 -86.1792 300° West 166 191 6,000  Level Chicago Center
Thu 10:54:03 PM 41.4708 -86.2303 305° West 166 191 6,000  Level Chicago Center
Thu 10:55:04 PM 41.4925 -86.2850 298° West 167 192 6,000 49 Level Chicago Center
Thu 10:56:05 PM 41.5169 -86.3369 302° West 165 190 6,100  Climbing Chicago Center
Thu 10:57:07 PM 41.5406 -86.3892 301° West 164 189 6,000 -49 Descending Chicago Center
Thu 10:58:08 PM 41.5639 -86.4422 300° West 164 189 6,000  Level Chicago Center
Thu 10:59:09 PM 41.5881 -86.4933 302° West 165 190 6,000 49 Level Chicago Center
Thu 11:00:10 PM 41.6114 -86.5436 302° West 161 185 6,100  Climbing Chicago Center
Thu 11:01:11 PM 41.6317 -86.5956 298° West 159 183 6,000 -49 Descending Chicago Center
Thu 11:02:12 PM 41.6600 -86.6567 302° West 162 186 6,000  Level Chicago Center
Thu 11:03:14 PM 41.6828 -86.7078 301° West 161 185 6,000  Level Chicago Center
Thu 11:04:15 PM 41.7039 -86.7517 303° West 160 184 6,000 49 Level Chicago Center
Thu 11:05:16 PM 41.7325 -86.8114 303° West 160 184 6,100 -148 Climbing Chicago Center
Thu 11:06:17 PM 41.7556 -86.8644 300° West 165 190 5,700 -393 Descending Chicago Center
Thu 11:07:18 PM 41.7811 -86.9200 302° West 174 200 5,300 -443 Descending Chicago Center
Thu 11:08:19 PM 41.8058 -86.9772 300° West 178 205 4,800 -492 Descending Chicago Center
Thu 11:09:20 PM 41.8314 -87.0342 301° West 180 207 4,300 -393 Descending Chicago Center
Thu 11:10:21 PM 41.8586 -87.0925 302° West 184 212 4,000 -148 Descending Chicago Center
Thu 11:11:22 PM 41.8844 -87.1467 303° West 178 205 4,000 49 Level Chicago Center
Thu 11:12:24 PM 41.9064 -87.2003 299° West 173 199 4,100  Climbing Chicago Center
Thu 11:13:25 PM 41.9303 -87.2544 301° West 170 196 4,000 -49 Descending Chicago Center
Thu 11:14:26 PM 41.9589 -87.3200 300° West 170 196 4,000 -197 Level Chicago Center
Thu 11:15:27 PM 41.9828 -87.3758 300° West 171 197 3,600 -424 Descending Chicago Center
Thu 11:16:05 PM 42.0000 -87.4167 300° West 179 206 3,300 -364 Descending Chicago TRACON
Thu 11:17:06 PM 42.0167 -87.4667 294° West 182 209 3,000 -142 Descending Chicago TRACON
Thu 11:18:12 PM 42.0500 -87.5333 304° West 170 196 3,000 50 Level Chicago TRACON
Thu 11:19:06 PM 42.0667 -87.5833 294° West 168 193 3,100 -368 Climbing Chicago TRACON
Thu 11:20:06 PM 42.1000 -87.6500 304° West 190 219 2,300 -800 Descending Chicago TRACON
Thu 11:22:00 PM 42.1049 -87.7362 300° West  Level Estimated
Thu 11:29:00 PM 42.1000 -87.9000 289° West  Level FlightAware Approximate
Thu 11:30:00 PM 42.1143 -87.9015 289° West  Level Estimated
Thu 11:31:00 PM 42.1143 -87.9015 289° West  Level Estimated
Thu 11:32:00 PM 42.1143 -87.9015 289° West  Level Estimated
Thu 11:33:00 PM 42.1143 -87.9015 289° West  Level Estimated
Thu 11:34:00 PM 42.1143 -87.9015 289° West  Level Estimated

Login

Don't have an account? Register now (free) for customized features, flight alerts, and more!